.
WxDataArchive / Data Records for 2012-07-14
2012-07-13 July 2012 2012-07-15

Data Records for Saturday, 14 July 2012

Time	Temp	Chill	HIndex	Humid	Dewpt	 Wind 	HiWind	WindDir	Rain 	Barom 
-----	----	-----	------	-----	-----	------	------	-------	-----	----- 
00:00	75.4	75.4	77.5	63	61.9	0	0	---	0.00	30.047 
00:05	75.3	75.3	77.4	63	61.8	0	1	68	0.00	30.047 
00:10	75.1	75.1	77.2	64	62.1	0	0	---	0.00	30.047 
00:15	74.9	74.9	74.9	65	62.3	0	1	68	0.00	30.047 
00:20	74.7	74.7	74.7	65	62.1	0	0	---	0.00	30.047 
00:25	74.6	74.6	74.6	65	62.0	0	1	68	0.00	30.047 
00:30	74.6	74.6	74.6	66	62.5	0	1	68	0.00	30.048 
00:35	74.4	74.4	74.4	66	62.3	0	1	68	0.00	30.048 
00:40	74.2	74.2	74.2	67	62.5	0	1	68	0.00	30.048 
00:45	74.0	74.0	74.0	67	62.3	0	2	68	0.00	30.047 
00:50	73.9	73.9	73.9	68	62.7	0	2	68	0.00	30.047 
00:55	73.9	73.9	73.9	68	62.7	0	1	68	0.00	30.047 
01:00	73.7	73.7	73.7	69	62.9	0	1	68	0.00	30.049 
01:05	73.5	73.5	73.5	69	62.7	0	1	68	0.00	30.049 
01:10	73.5	73.5	73.5	70	63.1	0	1	68	0.00	30.049 
01:15	73.3	73.3	73.3	70	62.9	0	1	68	0.00	30.050 
01:20	73.3	73.3	73.3	71	63.3	0	1	68	0.00	30.050 
01:25	73.2	73.2	73.2	71	63.2	0	1	68	0.00	30.050 
01:30	73.2	73.2	73.2	72	63.6	0	1	68	0.00	30.048 
01:35	73.0	73.0	73.0	72	63.4	0	1	68	0.00	30.048 
01:40	73.0	73.0	73.0	73	63.8	0	1	68	0.00	30.048 
01:45	72.8	72.8	72.8	73	63.6	0	2	68	0.00	30.049 
01:50	72.8	72.8	72.8	73	63.6	0	1	68	0.00	30.049 
01:55	72.7	72.7	72.7	74	63.9	0	1	68	0.00	30.049 
02:00	72.7	72.7	72.7	74	63.9	0	0	---	0.00	30.048 
02:05	72.5	72.5	72.5	74	63.7	0	1	68	0.00	30.048 
02:10	72.3	72.3	72.3	75	63.9	0	0	---	0.00	30.048 
02:15	72.1	72.1	72.1	76	64.1	0	0	---	0.00	30.048 
02:20	72.0	72.0	72.0	76	64.0	0	1	68	0.00	30.048 
02:25	71.8	71.8	71.8	77	64.2	0	0	---	0.00	30.048 
02:30	71.8	71.8	71.8	77	64.2	0	1	68	0.00	30.044 
02:35	71.6	71.6	71.6	77	64.0	0	0	---	0.00	30.044 
02:40	71.5	71.5	71.5	78	64.3	0	1	68	0.00	30.044 
02:45	71.3	71.3	71.3	78	64.1	0	0	---	0.00	30.048 
02:50	71.3	71.3	71.3	79	64.4	0	0	---	0.00	30.048 
02:55	71.1	71.1	71.1	79	64.2	0	0	---	0.00	30.048 
03:00	71.1	71.1	71.1	79	64.2	0	1	68	0.00	30.050 
03:05	71.1	71.1	71.1	79	64.2	0	0	---	0.00	30.050 
03:10	70.9	70.9	70.9	80	64.4	0	0	---	0.00	30.050 
03:15	70.9	70.9	70.9	80	64.4	0	0	---	0.00	30.049 
03:20	70.8	70.8	70.8	80	64.3	0	1	68	0.00	30.049 
03:25	70.6	70.6	70.6	81	64.5	0	0	---	0.00	30.049 
03:30	70.4	70.4	70.4	81	64.3	0	0	---	0.00	30.048 
03:35	70.4	70.4	70.4	81	64.3	0	0	---	0.00	30.048 
03:40	70.3	70.3	70.3	82	64.5	0	0	---	0.00	30.048 
03:45	70.3	70.3	70.3	82	64.5	0	0	---	0.00	30.047 
03:50	70.1	70.1	70.1	82	64.3	0	0	---	0.00	30.047 
03:55	69.9	69.9	69.9	82	64.1	0	0	---	0.00	30.047 
04:00	69.8	69.8	69.8	82	64.0	0	0	---	0.00	30.050 
04:05	69.6	69.6	69.6	83	64.2	0	0	---	0.00	30.050 
04:10	69.4	69.4	69.4	83	64.0	0	0	---	0.00	30.050 
04:15	69.4	69.4	69.4	84	64.3	0	0	---	0.00	30.049 
04:20	69.4	69.4	69.4	84	64.3	0	0	---	0.00	30.049 
04:25	69.3	69.3	69.3	84	64.2	0	0	---	0.00	30.049 
04:30	69.3	69.3	69.3	84	64.2	0	0	---	0.00	30.049 
04:35	69.3	69.3	69.3	84	64.2	0	0	---	0.00	30.049 
04:40	69.1	69.1	69.1	85	64.4	0	0	---	0.00	30.049 
04:45	69.1	69.1	69.1	85	64.4	0	0	---	0.00	30.045 
04:50	68.9	68.9	68.9	85	64.2	0	0	---	0.00	30.045 
04:55	68.9	68.9	68.9	85	64.2	0	0	---	0.00	30.045 
05:00	68.8	68.8	68.8	86	64.4	0	0	---	0.00	30.043 
05:05	68.6	68.6	68.6	86	64.2	0	0	---	0.00	30.043 
05:10	68.6	68.6	68.6	86	64.2	0	0	---	0.00	30.043 
05:15	68.4	68.4	68.4	86	64.0	0	0	---	0.00	30.046 
05:20	68.4	68.4	68.4	86	64.0	0	0	---	0.00	30.046 
05:25	68.3	68.3	68.3	86	63.9	0	0	---	0.00	30.046 
05:30	68.1	68.1	68.1	86	63.7	0	0	---	0.00	30.047 
05:35	67.9	67.9	67.9	87	63.9	0	0	---	0.00	30.047 
05:40	67.8	67.8	67.8	87	63.8	0	0	---	0.00	30.047 
05:45	67.6	67.6	67.6	87	63.6	0	0	---	0.00	30.050 
05:50	67.4	67.4	67.4	88	63.7	0	0	---	0.00	30.050 
05:55	67.3	67.3	67.3	88	63.6	0	0	---	0.00	30.050 
06:00	67.1	67.1	67.1	88	63.4	0	0	---	0.00	30.053 
06:05	66.9	66.9	66.9	88	63.2	0	0	---	0.00	30.053 
06:10	66.9	66.9	66.9	89	63.5	0	0	---	0.00	30.053 
06:15	66.8	66.8	66.8	89	63.4	0	0	---	0.00	30.054 
06:20	66.8	66.8	66.8	89	63.4	0	0	---	0.00	30.054 
06:25	66.8	66.8	66.8	89	63.4	0	0	---	0.00	30.054 
06:30	66.8	66.8	66.8	90	63.8	0	0	---	0.00	30.060 
06:35	66.8	66.8	66.8	90	63.8	0	0	---	0.00	30.060 
06:40	67.1	67.1	67.1	91	64.4	0	0	---	0.00	30.060 
06:45	67.3	67.3	67.3	91	64.6	0	1	68	0.00	30.059 
06:50	67.4	67.4	67.4	91	64.7	0	1	68	0.00	30.059 
06:55	67.8	67.8	67.8	90	64.8	0	2	68	0.00	30.059 
07:00	67.8	67.8	67.8	90	64.8	0	3	68	0.00	30.058 
07:05	67.9	67.9	67.9	90	64.9	0	1	68	0.00	30.058 
07:10	67.9	67.9	67.9	90	64.9	0	1	68	0.00	30.058 
07:15	68.1	68.1	68.1	90	65.0	0	1	68	0.00	30.066 
07:20	68.1	68.1	68.1	89	64.7	0	2	68	0.00	30.066 
07:25	68.1	68.1	68.1	89	64.7	0	1	68	0.00	30.066 
07:30	68.3	68.3	68.3	89	64.9	0	2	68	0.00	30.068 
07:35	68.3	68.3	68.3	89	64.9	0	2	68	0.00	30.068 
07:40	68.4	68.4	68.4	89	65.0	0	1	68	0.00	30.068 
07:45	68.6	68.6	68.6	88	64.9	0	1	68	0.00	30.068 
07:50	68.9	68.9	68.9	88	65.2	0	1	68	0.00	30.068 
07:55	69.1	69.1	69.1	87	65.1	0	2	68	0.00	30.068 
08:00	69.3	69.3	69.3	87	65.3	0	1	68	0.00	30.068 
08:05	69.4	69.4	69.4	87	65.4	0	1	68	0.00	30.068 
08:10	69.4	69.4	69.4	87	65.4	0	1	68	0.00	30.068 
08:15	69.6	69.6	69.6	86	65.2	0	1	68	0.00	30.071 
08:20	69.8	69.8	69.8	86	65.4	0	0	---	0.00	30.071 
08:25	69.8	69.8	69.8	86	65.4	0	1	68	0.00	30.071 
08:30	69.9	69.9	69.9	86	65.5	0	1	68	0.00	30.071 
08:35	70.3	70.3	70.3	86	65.9	0	1	68	0.00	30.071 
08:40	70.8	70.8	70.8	85	66.1	0	1	68	0.00	30.071 
08:45	71.3	71.3	71.3	84	66.2	0	0	---	0.00	30.069 
08:50	71.6	71.6	71.6	84	66.5	0	1	68	0.00	30.069 
08:55	72.1	72.1	72.1	82	66.3	0	2	68	0.00	30.069 
09:00	72.5	72.5	72.5	81	66.3	0	1	68	0.00	30.071 
09:05	73.0	73.0	73.0	81	66.8	0	1	68	0.00	30.071 
09:10	73.3	73.3	73.3	80	66.7	0	1	68	0.00	30.071 
09:15	73.7	73.7	73.7	79	66.8	0	0	---	0.00	30.074 
09:20	74.0	74.0	74.0	78	66.7	0	1	68	0.00	30.074 
09:25	74.6	74.6	74.6	77	66.9	0	1	68	0.00	30.074 
09:30	74.9	74.9	74.9	77	67.2	0	1	68	0.00	30.081 
09:35	75.4	75.4	76.6	75	66.9	0	2	68	0.00	30.081 
09:40	76.0	76.0	77.4	74	67.1	0	3	68	0.00	30.081 
09:45	76.3	76.3	77.8	74	67.4	0	3	68	0.00	30.079 
09:50	77.0	77.0	78.7	73	67.7	0	2	68	0.00	30.079 
09:55	77.6	77.6	79.5	72	67.8	0	1	68	0.00	30.079 
10:00	77.9	77.9	79.9	70	67.3	1	2	68	0.00	30.072 
10:05	78.3	78.3	80.4	69	67.3	0	2	68	0.00	30.072 
10:10	79.0	79.0	81.3	69	67.9	0	2	68	0.00	30.072 
10:15	79.9	79.9	82.5	67	67.9	1	3	68	0.00	30.070 
10:20	80.7	80.7	83.4	65	67.8	0	2	68	0.00	30.070 
10:25	81.1	81.1	83.8	64	67.7	1	4	68	0.00	30.070 
10:30	81.1	81.1	84.0	65	68.2	1	4	68	0.00	30.070 
10:35	81.8	81.8	84.7	63	67.9	1	3	68	0.00	30.070 
10:40	82.6	82.6	85.5	61	67.8	1	3	68	0.00	30.070 
10:45	83.0	83.0	85.9	60	67.7	1	3	68	0.00	30.067 
10:50	83.2	83.2	86.2	60	67.8	1	4	68	0.00	30.067 
10:55	83.2	83.2	86.0	59	67.4	1	3	68	0.00	30.067 
11:00	83.4	83.4	86.3	59	67.5	1	3	68	0.00	30.064 
11:05	83.6	83.6	86.6	59	67.7	0	2	68	0.00	30.064 
11:10	83.8	83.8	86.7	58	67.4	1	3	68	0.00	30.064 
11:15	84.0	84.0	87.0	58	67.6	0	1	68	0.00	30.066 
11:20	84.0	84.0	87.0	58	67.6	1	3	68	0.00	30.066 
11:25	83.6	83.6	86.4	58	67.2	0	2	68	0.00	30.066 
11:30	83.8	83.8	86.4	57	66.9	1	3	68	0.00	30.068 
11:35	84.0	84.0	86.7	57	67.1	1	4	68	0.00	30.068 
11:40	84.1	84.1	86.9	57	67.2	1	4	68	0.00	30.068 
11:45	84.5	84.5	87.5	57	67.6	0	2	68	0.00	30.064 
11:50	84.9	84.9	87.6	55	66.9	1	2	135	0.00	30.064 
11:55	84.7	84.7	87.0	54	66.2	1	4	248	0.00	30.064 
12:00	84.9	84.9	87.6	55	66.9	0	3	248	0.00	30.064 
12:05	85.3	85.3	88.0	54	66.7	1	4	248	0.00	30.064 
12:10	85.1	85.1	87.9	55	67.1	1	3	68	0.00	30.064 
12:15	85.3	85.3	88.0	54	66.7	0	3	0	0.00	30.064 
12:20	85.7	85.7	88.0	52	66.0	0	2	0	0.00	30.064 
12:25	85.7	85.7	88.3	53	66.6	1	3	0	0.00	30.064 
12:30	86.3	86.3	88.6	51	66.0	1	4	22	0.00	30.060 
12:35	87.0	87.0	90.1	52	67.2	1	3	45	0.00	30.060 
12:40	87.6	87.6	90.4	50	66.6	1	4	45	0.00	30.060 
12:45	88.2	88.2	91.0	49	66.6	2	4	112	0.00	30.050 
12:50	89.3	89.3	92.1	47	66.4	1	3	112	0.00	30.050 
12:55	89.5	89.5	92.1	46	65.9	1	3	0	0.00	30.050 
13:00	89.5	89.5	91.7	45	65.3	1	2	0	0.00	30.044 
13:05	89.7	89.7	92.4	46	66.1	1	4	90	0.00	30.044 
13:10	89.5	89.5	92.4	47	66.6	2	3	90	0.00	30.044 
13:15	89.7	89.7	92.4	46	66.1	2	4	112	0.00	30.037 
13:20	89.3	89.3	92.1	47	66.4	1	4	90	0.00	30.037 
13:25	89.5	89.5	91.7	45	65.3	1	6	90	0.00	30.037 
13:30	89.7	89.7	92.0	45	65.5	2	6	90	0.00	30.031 
13:35	89.9	89.9	91.9	44	65.0	2	4	90	0.00	30.031 
13:40	90.3	90.3	92.6	44	65.4	1	4	112	0.00	30.031 
13:45	90.3	90.3	92.6	44	65.4	1	4	45	0.00	30.026 
13:50	90.5	90.5	92.5	43	64.9	1	3	270	0.00	30.026 
13:55	91.0	91.0	93.4	43	65.4	1	5	112	0.00	30.026 
14:00	90.3	90.3	93.0	45	66.0	2	4	90	0.00	30.016 
14:05	89.0	89.0	91.2	46	65.5	1	3	90	0.00	30.016 
14:10	88.0	88.0	90.0	47	65.2	1	5	90	0.00	30.016 
14:15	87.8	87.8	89.7	47	65.0	1	4	90	0.00	30.017 
14:20	89.0	89.0	90.5	44	64.2	1	3	315	0.00	30.017 
14:25	89.9	89.9	91.2	42	63.7	1	3	315	0.00	30.017 
14:30	90.7	90.7	92.9	43	65.1	1	5	90	0.00	30.009 
14:35	91.4	91.4	92.8	40	63.6	2	5	90	0.00	30.009 
14:40	91.6	91.6	93.1	40	63.8	1	4	112	0.00	30.009 
14:45	91.8	91.8	93.4	40	64.0	1	4	112	0.00	30.001 
14:50	92.3	92.3	93.8	39	63.7	1	4	112	0.00	30.001 
14:55	91.8	91.8	93.1	39	63.3	1	2	112	0.00	30.001 
15:00	91.4	91.4	92.8	40	63.6	1	4	112	0.00	29.994 
15:05	91.2	91.2	92.5	40	63.5	1	4	112	0.00	29.994 
15:10	91.0	91.0	92.6	41	64.0	1	5	90	0.00	29.994 
15:15	90.1	90.1	91.5	42	63.9	2	7	90	0.00	29.989 
15:20	89.7	89.7	90.6	41	62.8	2	6	90	0.00	29.989 
15:25	90.3	90.3	91.1	40	62.7	2	6	90	0.00	29.989 
15:30	90.3	90.3	91.1	40	62.7	1	3	90	0.00	29.983 
15:35	89.3	89.3	90.0	41	62.5	3	5	90	0.00	29.983 
15:40	88.6	88.6	89.6	43	63.2	0	3	112	0.00	29.983 
15:45	89.0	89.0	89.9	42	62.9	1	4	112	0.00	29.977 
15:50	89.5	89.5	90.0	40	61.9	0	2	90	0.00	29.977 
15:55	89.9	89.9	90.5	40	62.3	1	3	90	0.00	29.977 
16:00	89.9	89.9	90.2	39	61.6	0	3	90	0.00	29.970 
16:05	89.7	89.7	90.2	40	62.1	1	3	90	0.00	29.970 
16:10	89.0	89.0	89.3	40	61.5	0	3	90	0.00	29.970 
16:15	88.6	88.6	89.0	41	61.8	0	2	90	0.00	29.974 
16:20	88.4	88.4	89.3	43	63.0	1	3	112	0.00	29.974 
16:25	88.0	88.0	89.4	45	64.0	1	3	270	0.00	29.974 
16:30	87.4	87.4	89.4	48	65.3	1	3	225	0.00	29.977 
16:35	86.7	86.7	88.6	49	65.2	1	4	248	0.00	29.977 
16:40	86.3	86.3	88.3	50	65.4	1	2	248	0.00	29.977 
16:45	84.7	84.7	88.1	58	68.3	2	5	248	0.00	29.988 
16:50	83.0	83.0	86.1	61	68.1	1	4	292	0.00	29.988 
16:55	82.2	82.2	85.1	62	67.9	0	1	292	0.00	29.988 
17:00	81.8	81.8	84.9	64	68.4	0	2	292	0.00	30.005 
17:05	81.1	81.1	83.8	64	67.7	0	2	292	0.00	30.005 
17:10	80.3	80.3	82.7	64	67.0	0	2	292	0.00	30.005 
17:15	79.9	79.9	82.1	64	66.6	0	1	292	0.00	30.010 
17:20	79.9	79.9	82.1	64	66.6	0	1	292	0.00	30.010 
17:25	79.9	79.9	82.0	63	66.2	0	1	292	0.00	30.010 
17:30	80.1	80.1	82.2	62	65.9	0	1	292	0.00	30.001 
17:35	80.3	80.3	82.3	61	65.6	0	2	292	0.00	30.001 
17:40	80.5	80.5	82.7	62	66.3	0	1	292	0.00	30.001 
17:45	80.7	80.7	82.9	62	66.4	0	2	292	0.00	29.999 
17:50	80.9	80.9	83.4	63	67.1	0	2	292	0.00	29.999 
17:55	81.1	81.1	83.8	64	67.7	0	1	292	0.00	29.999 
18:00	81.2	81.2	83.8	63	67.4	0	1	292	0.00	29.994 
18:05	81.8	81.8	84.5	62	67.5	1	3	292	0.00	29.994 
18:10	81.8	81.8	83.6	57	65.0	1	3	292	0.00	29.994 
18:15	81.8	81.8	83.3	55	64.0	2	4	270	0.00	29.992 
18:20	81.8	81.8	83.5	56	64.5	0	1	270	0.00	29.992 
18:25	82.0	82.0	83.4	54	63.7	0	1	270	0.00	29.992 
18:30	82.2	82.2	83.6	54	63.9	1	2	270	0.00	29.982 
18:35	82.2	82.2	83.8	55	64.4	1	2	270	0.00	29.982 
18:40	81.8	81.8	83.3	55	64.0	0	2	270	0.00	29.982 
18:45	81.6	81.6	83.2	56	64.4	0	1	270	0.00	29.978 
18:50	81.8	81.8	83.5	56	64.5	0	0	---	0.00	29.978 
18:55	82.2	82.2	83.6	54	63.9	0	1	270	0.00	29.978 
19:00	82.4	82.4	83.7	53	63.5	0	1	270	0.00	29.979 
19:05	82.8	82.8	84.0	52	63.3	0	1	270	0.00	29.979 
19:10	83.0	83.0	84.1	51	63.0	0	1	270	0.00	29.979 
19:15	83.0	83.0	84.3	52	63.5	0	1	270	0.00	29.976 
19:20	83.2	83.2	84.5	52	63.7	0	1	270	0.00	29.976 
19:25	83.2	83.2	84.5	52	63.7	0	1	270	0.00	29.976 
19:30	82.8	82.8	85.4	59	67.0	1	2	270	0.00	29.976 
19:35	81.8	81.8	84.5	62	67.5	0	1	270	0.00	29.976 
19:40	81.2	81.2	83.8	63	67.4	0	1	270	0.00	29.976 
19:45	81.1	81.1	83.5	62	66.8	0	1	270	0.00	29.980 
19:50	81.1	81.1	83.8	64	67.7	0	1	270	0.00	29.980 
19:55	80.9	80.9	83.5	64	67.6	0	1	270	0.00	29.980 
20:00	80.9	80.9	83.5	64	67.6	0	1	270	0.00	29.990 
20:05	80.9	80.9	83.5	64	67.6	0	1	270	0.00	29.990 
20:10	80.9	80.9	83.7	65	68.0	0	0	---	0.00	29.990 
20:15	80.7	80.7	83.4	65	67.8	0	1	270	0.00	29.986 
20:20	80.9	80.9	83.7	65	68.0	0	0	---	0.00	29.986 
20:25	80.7	80.7	83.4	65	67.8	0	0	---	0.00	29.986 
20:30	80.7	80.7	83.5	66	68.3	0	1	270	0.00	29.990 
20:35	80.5	80.5	83.3	67	68.5	0	2	270	0.00	29.990 
20:40	79.9	79.9	82.7	69	68.8	0	1	270	0.00	29.990 
20:45	79.8	79.8	82.5	69	68.7	0	0	---	0.00	29.997 
20:50	79.6	79.6	82.3	70	68.9	0	1	270	0.00	29.997 
20:55	79.6	79.6	82.4	71	69.3	0	1	270	0.00	29.997 
21:00	79.4	79.4	82.1	71	69.2	0	1	270	0.00	30.008 
21:05	79.2	79.2	81.5	67	67.3	0	2	270	0.00	30.008 
21:10	79.2	79.2	81.4	66	66.8	1	3	90	0.00	30.008 
21:15	79.0	79.0	81.2	67	67.1	0	2	90	0.00	30.016 
21:20	78.6	78.6	80.7	67	66.7	0	1	90	0.00	30.016 
21:25	78.1	78.1	80.0	67	66.2	0	2	90	0.00	30.016 
21:30	77.9	77.9	79.9	69	66.9	0	3	90	0.00	30.016 
21:35	77.7	77.7	79.6	70	67.1	0	1	90	0.00	30.016 
21:40	77.4	77.4	79.3	72	67.6	0	1	90	0.00	30.016 
21:45	77.2	77.2	79.0	73	67.9	0	1	90	0.00	30.008 
21:50	76.7	76.7	78.3	74	67.8	0	0	---	0.00	30.008 
21:55	76.3	76.3	77.7	76	68.2	0	0	---	0.00	30.008 
22:00	76.0	76.0	77.2	77	68.3	0	0	---	0.00	30.014 
22:05	75.8	75.8	76.9	78	68.4	0	0	---	0.00	30.014 
22:10	75.6	75.6	76.6	78	68.2	0	0	---	0.00	30.014 
22:15	75.4	75.4	76.2	79	68.4	0	0	---	0.00	30.017 
22:20	75.4	75.4	76.1	80	68.8	0	1	90	0.00	30.017 
22:25	75.3	75.3	76.1	79	68.3	0	1	90	0.00	30.017 
22:30	75.3	75.3	76.1	79	68.3	0	1	90	0.00	30.018 
22:35	75.3	75.3	76.1	79	68.3	0	1	90	0.00	30.018 
22:40	75.3	75.3	76.1	79	68.3	0	1	90	0.00	30.018 
22:45	75.1	75.1	75.8	79	68.1	0	2	90	0.00	30.019 
22:50	75.1	75.1	75.8	79	68.1	0	1	90	0.00	30.019 
22:55	75.1	75.1	75.8	79	68.1	0	1	90	0.00	30.019 
23:00	75.1	75.1	76.0	78	67.8	0	0	---	0.00	30.023 
23:05	75.1	75.1	76.0	78	67.8	0	1	90	0.00	30.023 
23:10	74.9	74.9	74.9	78	67.6	0	0	---	0.00	30.023 
23:15	74.9	74.9	74.9	78	67.6	0	1	90	0.00	30.019 
23:20	74.9	74.9	74.9	78	67.6	0	1	90	0.00	30.019 
23:25	74.7	74.7	74.7	78	67.4	0	1	90	0.00	30.019 
23:30	74.7	74.7	74.7	78	67.4	0	0	---	0.00	30.020 
23:35	74.7	74.7	74.7	78	67.4	0	1	90	0.00	30.020 
23:40	74.7	74.7	74.7	78	67.4	0	0	---	0.00	30.020 
23:45	74.6	74.6	74.6	78	67.3	0	1	90	0.00	30.026 
23:50	74.6	74.6	74.6	78	67.3	0	1	90	0.00	30.026 
23:55	74.6	74.6	74.6	78	67.3	0	1	90	0.00	30.026 

CoCoRaHS
IN-AL-39
A2 Web Hosting
Creative Commons License
GoDaddy
search engine by freefind advanced

loaded 2018-11-15 03:28:33 • last modified 2010-11-18 10:43:29
Privacy PolicyDisclaimer
• wx.awcolley.com is powered by PmWiki v.2002016 •
• all content (unless otherwise noted) © 2018 A W Colley